createdAt,value
2023-02-28T00:01:49.212Z,98318.13
2023-02-28T00:04:17.425Z,98319.16
2023-02-28T00:06:45.672Z,98317.25
2023-02-28T00:09:15.377Z,98321.22
2023-02-28T00:11:43.626Z,98320.09
2023-02-28T00:14:11.850Z,98315.66
2023-02-28T00:16:40.183Z,98323.81
2023-02-28T00:19:08.423Z,98318.75
2023-02-28T00:21:36.707Z,98321.28
2023-02-28T00:24:05.324Z,98322.22
2023-02-28T00:26:35.062Z,98320.47
2023-02-28T00:29:03.331Z,98325.88
2023-02-28T00:31:31.555Z,98322.72
2023-02-28T00:33:59.750Z,98323.69
2023-02-28T00:36:27.993Z,98331.31
2023-02-28T00:38:56.457Z,98324.56
2023-02-28T00:41:24.949Z,98324.16
2023-02-28T00:43:54.583Z,98320.19
2023-02-28T00:46:22.951Z,98315.94
2023-02-28T00:48:52.502Z,98326.56
2023-02-28T00:51:20.763Z,98318.13
2023-02-28T00:53:48.989Z,98324.25
2023-02-28T00:56:19.014Z,98317.69
2023-02-28T00:58:49.211Z,98315.88
2023-02-28T01:01:18.908Z,98315.03
2023-02-28T01:03:47.137Z,98317.81
2023-02-28T01:06:16.076Z,98320.84
2023-02-28T01:08:44.571Z,98320.75
2023-02-28T01:11:14.813Z,98309.19
2023-02-28T01:13:43.195Z,98316.81
2023-02-28T01:16:14.353Z,98321.16
2023-02-28T01:18:44.115Z,98311.25
2023-02-28T01:21:14.451Z,98319.75
2023-02-28T01:23:43.241Z,98320.81
2023-02-28T01:26:14.528Z,98312.13
2023-02-28T01:28:43.365Z,98312.03
2023-02-28T01:31:12.184Z,98312.81
2023-02-28T01:33:40.812Z,98324.25
2023-02-28T01:36:14.011Z,98319.94
2023-02-28T01:38:42.595Z,98318.06
2023-02-28T01:41:17.148Z,98316.38
2023-02-28T01:43:57.569Z,98317.41
2023-02-28T01:46:25.929Z,98324.16
2023-02-28T01:48:57.503Z,98315.34
2023-02-28T01:51:29.877Z,98323.03
2023-02-28T01:54:01.958Z,98318.13
2023-02-28T01:56:33.230Z,98324.06
2023-02-28T01:59:01.601Z,98314.47
2023-02-28T02:01:31.566Z,98324.41
2023-02-28T02:04:04.064Z,98315.84
2023-02-28T02:06:38.362Z,98318.28
2023-02-28T02:09:09.365Z,98316.28
2023-02-28T02:11:38.609Z,98320.44
2023-02-28T02:14:17.339Z,98317.09
2023-02-28T02:16:54.983Z,98318.06
2023-02-28T02:19:39.752Z,98323.13
2023-02-28T02:22:27.521Z,98317.00
2023-02-28T02:25:14.182Z,98316.22
2023-02-28T02:27:56.663Z,98321.75
2023-02-28T02:30:46.788Z,98313.81
2023-02-28T02:33:28.774Z,98312.56
2023-02-28T02:35:59.524Z,98319.06
2023-02-28T02:38:35.354Z,98308.19
2023-02-28T02:41:09.396Z,98311.53
2023-02-28T02:43:40.356Z,98309.22
2023-02-28T02:46:11.781Z,98310.19
2023-02-28T02:48:41.658Z,98313.59
2023-02-28T02:51:15.325Z,98314.13
2023-02-28T02:53:47.245Z,98314.13
2023-02-28T02:56:16.391Z,98311.44
2023-02-28T02:58:45.174Z,98312.88
2023-02-28T03:01:17.162Z,98314.59
2023-02-28T03:03:45.782Z,98326.25
2023-02-28T03:06:17.294Z,98323.44
2023-02-28T03:08:45.567Z,98328.91
2023-02-28T03:11:16.560Z,98321.28
2023-02-28T03:14:06.840Z,98325.16
2023-02-28T03:16:38.805Z,98323.34
2023-02-28T03:19:28.754Z,98324.69
2023-02-28T03:22:07.929Z,98323.19
2023-02-28T03:24:42.657Z,98322.22
2023-02-28T03:27:21.296Z,98333.44
2023-02-28T03:29:54.177Z,98327.47
2023-02-28T03:32:27.224Z,98324.28
2023-02-28T03:34:59.227Z,98325.16
2023-02-28T03:37:31.331Z,98326.84
2023-02-28T03:40:03.286Z,98328.56
2023-02-28T03:42:32.297Z,98327.81
2023-02-28T03:45:02.919Z,98326.69
2023-02-28T03:47:33.956Z,98325.88
2023-02-28T03:50:05.316Z,98336.13
2023-02-28T03:52:38.468Z,98326.84
2023-02-28T03:55:10.759Z,98328.75
2023-02-28T03:57:43.520Z,98334.63
2023-02-28T04:00:16.365Z,98333.84
2023-02-28T04:02:44.672Z,98330.59
2023-02-28T04:05:13.053Z,98329.69
2023-02-28T04:07:42.726Z,98337.97
2023-02-28T04:10:12.339Z,98339.25
2023-02-28T04:12:40.646Z,98343.44
2023-02-28T04:15:11.842Z,98332.41
2023-02-28T04:17:40.241Z,98347.72
2023-02-28T04:20:11.514Z,98348.59
2023-02-28T04:22:39.938Z,98343.66
2023-02-28T04:25:10.577Z,98347.81
2023-02-28T04:27:39.150Z,98349.47
2023-02-28T04:30:08.869Z,98360.69
2023-02-28T04:32:37.384Z,98347.00
2023-02-28T04:35:06.674Z,98356.47
2023-02-28T04:37:35.987Z,98357.34
2023-02-28T04:40:04.972Z,98361.97
2023-02-28T04:42:36.928Z,98360.03
2023-02-28T04:45:06.014Z,98354.34
2023-02-28T04:47:34.251Z,98358.34
2023-02-28T04:50:02.456Z,98359.09
2023-02-28T04:52:30.865Z,98357.88
2023-02-28T04:54:59.145Z,98363.78
2023-02-28T04:57:27.406Z,98360.69
2023-02-28T04:59:57.012Z,98361.63
2023-02-28T05:02:25.329Z,98360.28
2023-02-28T05:04:54.893Z,98354.25
2023-02-28T05:07:23.246Z,98356.16
2023-02-28T05:09:51.667Z,98353.53
2023-02-28T05:12:19.918Z,98350.22
2023-02-28T05:14:48.150Z,98356.47
2023-02-28T05:17:17.884Z,98355.91
2023-02-28T05:19:46.896Z,98357.44
2023-02-28T05:22:17.145Z,98352.25
2023-02-28T05:24:45.412Z,98352.31
2023-02-28T05:27:13.961Z,98355.03
2023-02-28T05:29:44.380Z,98352.16
2023-02-28T05:32:12.849Z,98355.25
2023-02-28T05:34:43.845Z,98357.72
2023-02-28T05:37:14.410Z,98365.75
2023-02-28T05:39:42.773Z,98366.53
2023-02-28T05:42:11.427Z,98362.13
2023-02-28T05:44:39.674Z,98370.34
2023-02-28T05:47:08.193Z,98373.78
2023-02-28T05:49:36.451Z,98376.22
2023-02-28T05:52:06.400Z,98374.66
2023-02-28T05:54:34.793Z,98381.06
2023-02-28T05:57:06.168Z,98376.53
2023-02-28T05:59:40.876Z,98383.44
2023-02-28T06:02:14.810Z,98381.69
2023-02-28T06:04:44.047Z,98390.09
2023-02-28T06:07:13.969Z,98390.09
2023-02-28T06:09:42.733Z,98397.97
2023-02-28T06:12:13.217Z,98393.44
2023-02-28T06:14:45.437Z,98398.97
2023-02-28T06:17:15.195Z,98398.97
2023-02-28T06:19:43.982Z,98402.72
2023-02-28T06:22:14.085Z,98403.31
2023-02-28T06:24:42.426Z,98402.84
2023-02-28T06:27:10.715Z,98413.38
2023-02-28T06:29:40.904Z,98416.72
2023-02-28T06:32:09.240Z,98422.34
2023-02-28T06:34:38.081Z,98420.06
2023-02-28T06:37:07.005Z,98417.31
2023-02-28T06:39:36.695Z,98425.84
2023-02-28T06:42:09.631Z,98428.97
2023-02-28T06:44:38.077Z,98423.94
2023-02-28T06:47:07.293Z,98435.94
2023-02-28T06:49:37.603Z,98436.66
2023-02-28T06:52:06.227Z,98438.09
2023-02-28T06:54:34.516Z,98440.44
2023-02-28T06:57:04.986Z,98436.13
2023-02-28T06:59:33.450Z,98440.97
2023-02-28T07:02:03.144Z,98439.06
2023-02-28T07:04:31.515Z,98431.97
2023-02-28T07:06:59.796Z,98438.84
2023-02-28T07:09:31.116Z,98445.38
2023-02-28T07:12:00.204Z,98438.50
2023-02-28T07:14:29.831Z,98442.16
2023-02-28T07:16:58.398Z,98440.03
2023-02-28T07:19:26.686Z,98441.88
2023-02-28T07:21:54.927Z,98443.84
2023-02-28T07:24:26.843Z,98442.19
2023-02-28T07:26:55.084Z,98453.56
2023-02-28T07:29:23.356Z,98452.91
2023-02-28T07:31:54.299Z,98439.97
2023-02-28T07:34:22.858Z,98443.75
2023-02-28T07:36:54.524Z,98448.53
2023-02-28T07:39:23.190Z,98451.09
2023-02-28T07:41:51.426Z,98450.13
2023-02-28T07:44:19.733Z,98457.69
2023-02-28T07:46:48.129Z,98459.53
2023-02-28T07:49:17.892Z,98460.47
2023-02-28T07:51:46.297Z,98460.69
2023-02-28T07:54:14.564Z,98465.94
2023-02-28T07:56:42.778Z,98469.59
2023-02-28T07:59:11.196Z,98465.00
2023-02-28T08:01:39.472Z,98465.31
2023-02-28T08:04:07.722Z,98465.88
2023-02-28T08:06:37.377Z,98460.22
2023-02-28T08:09:05.691Z,98473.72
2023-02-28T08:11:33.972Z,98471.13
2023-02-28T08:14:02.225Z,98469.28
2023-02-28T08:16:30.600Z,98475.56
2023-02-28T08:18:58.904Z,98472.63
2023-02-28T08:21:27.305Z,98472.28
2023-02-28T08:23:57.914Z,98476.38
2023-02-28T08:26:26.680Z,98467.91
2023-02-28T08:28:57.014Z,98477.94
2023-02-28T08:31:25.606Z,98475.72
2023-02-28T08:33:54.264Z,98474.44
2023-02-28T08:36:22.534Z,98478.44
2023-02-28T08:38:50.817Z,98471.00
2023-02-28T08:41:20.460Z,98481.50
2023-02-28T08:43:48.675Z,98470.09
2023-02-28T08:46:17.134Z,98477.09
2023-02-28T08:48:46.312Z,98467.00
2023-02-28T08:51:17.324Z,98469.19
2023-02-28T08:53:45.789Z,98476.09
2023-02-28T08:56:15.722Z,98474.88
2023-02-28T08:58:47.321Z,98476.25
2023-02-28T09:01:17.513Z,98475.66
2023-02-28T09:03:47.144Z,98479.72
2023-02-28T09:06:16.114Z,98474.91
2023-02-28T09:08:44.437Z,98482.72
2023-02-28T09:11:13.445Z,98475.13
2023-02-28T09:13:42.553Z,98481.38
2023-02-28T09:16:14.549Z,98472.47
2023-02-28T09:18:42.938Z,98481.03
2023-02-28T09:21:15.175Z,98489.75
2023-02-28T09:23:43.883Z,98482.59
2023-02-28T09:26:16.498Z,98480.91
2023-02-28T09:28:45.145Z,98485.34
2023-02-28T09:31:17.558Z,98482.28
2023-02-28T09:33:45.883Z,98491.75
2023-02-28T09:36:14.147Z,98486.38
2023-02-28T09:38:42.859Z,98487.34
2023-02-28T09:41:16.093Z,98484.97
2023-02-28T09:43:47.105Z,98488.84
2023-02-28T09:46:29.570Z,98493.81
2023-02-28T09:48:58.371Z,98483.28
2023-02-28T09:51:35.777Z,98481.47
2023-02-28T09:54:04.814Z,98476.34
2023-02-28T09:56:36.028Z,98479.41
2023-02-28T09:59:08.077Z,98475.25
2023-02-28T10:01:43.189Z,98472.19
2023-02-28T10:04:15.927Z,98477.44
2023-02-28T10:06:47.478Z,98476.06
2023-02-28T10:09:20.165Z,98474.41
2023-02-28T10:11:49.027Z,98485.09
2023-02-28T10:14:20.514Z,98475.75
2023-02-28T10:16:56.222Z,98470.06
2023-02-28T10:19:27.736Z,98469.75
2023-02-28T10:22:00.113Z,98470.56
2023-02-28T10:24:31.782Z,98468.19
2023-02-28T10:27:03.439Z,98459.34
2023-02-28T10:29:34.152Z,98468.00
2023-02-28T10:32:04.995Z,98461.09
2023-02-28T10:34:33.466Z,98455.44
2023-02-28T10:37:10.529Z,98458.00
2023-02-28T10:39:44.380Z,98464.06
2023-02-28T10:42:27.360Z,98456.13
2023-02-28T10:45:09.380Z,98463.00
2023-02-28T10:47:44.564Z,98462.13
2023-02-28T10:50:31.917Z,98450.91
2023-02-28T10:53:12.740Z,98443.97
2023-02-28T10:55:41.550Z,98445.72
2023-02-28T10:58:23.529Z,98447.38
2023-02-28T11:00:51.951Z,98445.19
2023-02-28T11:03:31.935Z,98442.91
2023-02-28T11:06:00.901Z,98443.59
2023-02-28T11:08:29.164Z,98435.06
2023-02-28T11:10:59.091Z,98430.06
2023-02-28T11:13:30.603Z,98432.13
2023-02-28T11:16:02.097Z,98434.59
2023-02-28T11:18:33.166Z,98431.63
2023-02-28T11:21:03.520Z,98424.41
2023-02-28T11:23:35.961Z,98415.91
2023-02-28T11:26:10.697Z,98419.72
2023-02-28T11:28:41.708Z,98405.59
2023-02-28T11:31:30.837Z,98393.97
2023-02-28T11:34:00.686Z,98403.41
2023-02-28T11:36:31.216Z,98400.53
2023-02-28T11:39:03.017Z,98398.94
2023-02-28T11:41:48.677Z,98383.69
2023-02-28T11:44:34.555Z,98396.28
2023-02-28T11:47:06.579Z,98395.44
2023-02-28T11:49:43.404Z,98393.44
2023-02-28T11:52:22.828Z,98397.00
2023-02-28T11:55:01.865Z,98388.84
2023-02-28T11:57:40.531Z,98382.88
2023-02-28T12:00:22.208Z,98382.50
2023-02-28T12:03:02.433Z,98386.28
2023-02-28T12:05:37.573Z,98377.72
2023-02-28T12:08:17.795Z,98379.44
2023-02-28T12:10:55.668Z,98376.97
2023-02-28T12:13:29.237Z,98371.75
2023-02-28T12:16:27.268Z,98367.34
2023-02-28T12:19:19.301Z,98369.44
2023-02-28T12:22:11.819Z,98366.94
2023-02-28T12:25:08.565Z,98362.41
2023-02-28T12:27:39.754Z,98357.09
2023-02-28T12:30:17.137Z,98358.44
2023-02-28T12:32:48.134Z,98356.81
2023-02-28T12:35:20.219Z,98351.06
2023-02-28T12:37:54.033Z,98354.31
2023-02-28T12:40:25.186Z,98354.78
2023-02-28T12:42:55.324Z,98350.28
2023-02-28T12:45:25.652Z,98353.59
2023-02-28T12:47:58.205Z,98352.28
2023-02-28T12:50:27.757Z,98350.25
2023-02-28T12:53:02.492Z,98350.44
2023-02-28T12:55:37.078Z,98344.47
2023-02-28T12:58:13.174Z,98342.75
2023-02-28T13:01:06.359Z,98341.63
2023-02-28T13:03:53.712Z,98340.28
2023-02-28T13:06:53.558Z,98330.94
2023-02-28T13:09:23.382Z,98328.59
2023-02-28T13:11:52.984Z,98333.50
2023-02-28T13:14:27.301Z,98324.78
2023-02-28T13:17:02.076Z,98326.03
2023-02-28T13:19:32.541Z,98322.38
2023-02-28T13:22:01.578Z,98328.91
2023-02-28T13:24:47.632Z,98326.13
2023-02-28T13:27:34.958Z,98320.13
2023-02-28T13:30:04.053Z,98324.41
2023-02-28T13:32:37.662Z,98311.78
2023-02-28T13:35:40.415Z,98325.50
2023-02-28T13:38:36.947Z,98319.59
2023-02-28T13:41:57.113Z,98312.41
2023-02-28T13:44:27.928Z,98313.66
2023-02-28T13:47:25.734Z,98309.28
2023-02-28T13:49:54.830Z,98306.72
2023-02-28T13:52:25.633Z,98311.69
2023-02-28T13:55:23.845Z,98298.31
2023-02-28T13:58:18.548Z,98299.28
2023-02-28T14:01:05.614Z,98300.63
2023-02-28T14:03:44.770Z,98297.66
2023-02-28T14:06:21.258Z,98296.00
2023-02-28T14:08:55.464Z,98286.19
2023-02-28T14:11:30.023Z,98284.16
2023-02-28T14:13:58.277Z,98286.84
2023-02-28T14:16:31.162Z,98285.50
2023-02-28T14:19:03.309Z,98281.72
2023-02-28T14:21:33.675Z,98276.63
2023-02-28T14:24:25.902Z,98264.94
2023-02-28T14:27:21.853Z,98254.06
2023-02-28T14:30:11.298Z,98264.78
2023-02-28T14:32:46.937Z,98261.75
2023-02-28T14:35:42.294Z,98257.59
2023-02-28T14:38:17.825Z,98267.47
2023-02-28T14:40:47.591Z,98261.56
2023-02-28T14:43:22.780Z,98265.94
2023-02-28T14:45:55.069Z,98262.69
2023-02-28T14:48:26.181Z,98263.41
2023-02-28T14:50:57.132Z,98266.38
2023-02-28T14:53:28.572Z,98266.78
2023-02-28T14:55:57.077Z,98269.81
2023-02-28T14:58:27.237Z,98269.78
2023-02-28T15:00:57.469Z,98274.47
2023-02-28T15:03:32.914Z,98271.38
2023-02-28T15:06:03.217Z,98275.97
2023-02-28T15:08:36.877Z,98268.28
2023-02-28T15:11:07.855Z,98269.63
2023-02-28T15:13:39.621Z,98270.78
2023-02-28T15:16:11.639Z,98263.69
2023-02-28T15:18:47.369Z,98270.53
2023-02-28T15:21:19.162Z,98274.84
2023-02-28T15:23:51.072Z,98284.00
2023-02-28T15:26:22.138Z,98283.91
2023-02-28T15:28:51.736Z,98275.72
2023-02-28T15:31:24.543Z,98282.09
2023-02-28T15:33:58.910Z,98284.31
2023-02-28T15:36:30.022Z,98296.53
2023-02-28T15:39:07.070Z,98286.53
2023-02-28T15:41:43.998Z,98287.34
2023-02-28T15:44:28.490Z,98290.97
2023-02-28T15:47:02.506Z,98291.09
2023-02-28T15:49:44.649Z,98297.44
2023-02-28T15:52:17.064Z,98287.88
2023-02-28T15:54:46.281Z,98293.47
2023-02-28T15:57:17.849Z,98287.97
2023-02-28T15:59:52.858Z,98293.72
2023-02-28T16:02:23.579Z,98288.03
2023-02-28T16:05:02.400Z,98288.91
2023-02-28T16:07:31.813Z,98291.66
2023-02-28T16:10:00.209Z,98300.16
2023-02-28T16:12:30.068Z,98297.44
2023-02-28T16:15:00.250Z,98297.84
2023-02-28T16:17:31.133Z,98297.00
2023-02-28T16:20:02.306Z,98296.03
2023-02-28T16:22:30.767Z,98295.69
2023-02-28T16:24:59.240Z,98297.06
2023-02-28T16:27:35.585Z,98296.50
2023-02-28T16:30:04.871Z,98296.22
2023-02-28T16:32:34.448Z,98301.97
2023-02-28T16:35:04.957Z,98297.41
2023-02-28T16:37:33.478Z,98298.50
2023-02-28T16:40:02.069Z,98307.84
2023-02-28T16:42:31.356Z,98303.78
2023-02-28T16:45:01.722Z,98306.34
2023-02-28T16:47:32.904Z,98309.81
2023-02-28T16:50:01.461Z,98319.59
2023-02-28T16:52:31.174Z,98314.06
2023-02-28T16:55:01.361Z,98315.91
2023-02-28T16:57:31.471Z,98321.75
2023-02-28T17:00:02.184Z,98323.16
2023-02-28T17:02:34.451Z,98329.75
2023-02-28T17:05:03.393Z,98327.03
2023-02-28T17:07:35.025Z,98340.84
2023-02-28T17:10:09.887Z,98338.84
2023-02-28T17:12:38.623Z,98332.41
2023-02-28T17:15:09.044Z,98339.22
2023-02-28T17:17:37.870Z,98349.00
2023-02-28T17:20:09.329Z,98345.19
2023-02-28T17:22:40.008Z,98340.72
2023-02-28T17:25:13.624Z,98348.53
2023-02-28T17:27:53.741Z,98343.19
2023-02-28T17:30:31.123Z,98349.16
2023-02-28T17:33:00.742Z,98350.63
2023-02-28T17:35:32.464Z,98353.19
2023-02-28T17:38:16.442Z,98351.22
2023-02-28T17:40:51.817Z,98353.25
2023-02-28T17:43:24.630Z,98357.22
2023-02-28T17:48:45.267Z,98350.66
2023-02-28T17:51:18.642Z,98351.59
2023-02-28T17:53:50.185Z,98357.44
2023-02-28T17:56:21.819Z,98351.13
2023-02-28T17:58:50.925Z,98353.81
2023-02-28T18:01:22.161Z,98358.44
2023-02-28T18:03:55.112Z,98358.22
2023-02-28T18:06:25.475Z,98357.44
2023-02-28T18:08:56.724Z,98362.41
2023-02-28T18:11:42.790Z,98360.59
2023-02-28T18:14:13.887Z,98365.09
2023-02-28T18:16:44.559Z,98369.97
2023-02-28T18:19:21.263Z,98376.22
2023-02-28T18:21:58.207Z,98363.13
2023-02-28T18:24:34.981Z,98370.06
2023-02-28T18:27:09.378Z,98366.47
2023-02-28T18:29:40.732Z,98377.50
2023-02-28T18:32:12.366Z,98375.47
2023-02-28T18:34:43.080Z,98379.22
2023-02-28T18:37:18.783Z,98377.34
2023-02-28T18:39:58.173Z,98384.13
2023-02-28T18:42:30.847Z,98383.06
2023-02-28T18:45:01.766Z,98386.47
2023-02-28T18:47:32.605Z,98389.09
2023-02-28T18:50:09.311Z,98391.66
2023-02-28T18:52:38.350Z,98390.75
2023-02-28T18:55:18.827Z,98389.69
2023-02-28T18:57:50.784Z,98391.44
2023-02-28T19:00:23.356Z,98395.22
2023-02-28T19:02:57.978Z,98391.06
2023-02-28T19:05:35.090Z,98398.53
2023-02-28T19:08:06.613Z,98395.06
2023-02-28T19:10:43.244Z,98399.56
2023-02-28T19:13:14.337Z,98393.59
2023-02-28T19:15:46.637Z,98395.34
2023-02-28T19:18:18.563Z,98405.44
2023-02-28T19:20:48.962Z,98401.44
2023-02-28T19:23:19.996Z,98400.53
2023-02-28T19:25:53.339Z,98396.16
2023-02-28T19:28:27.473Z,98401.00
2023-02-28T19:30:59.493Z,98401.31
2023-02-28T19:33:34.255Z,98401.72
2023-02-28T19:36:07.884Z,98402.13
2023-02-28T19:38:39.005Z,98403.19
2023-02-28T19:41:32.299Z,98406.22
2023-02-28T19:44:04.681Z,98402.63
2023-02-28T19:46:38.020Z,98402.03
2023-02-28T19:49:09.274Z,98405.66
2023-02-28T19:51:39.468Z,98403.84
2023-02-28T19:54:10.489Z,98405.53
2023-02-28T19:56:42.444Z,98398.50
2023-02-28T19:59:21.888Z,98401.31
2023-02-28T20:02:03.402Z,98402.00
2023-02-28T20:04:34.615Z,98400.03
2023-02-28T20:07:14.090Z,98395.25
2023-02-28T20:09:53.112Z,98388.28
2023-02-28T20:12:24.819Z,98397.28
2023-02-28T20:15:01.021Z,98389.84
2023-02-28T20:17:33.136Z,98387.94
2023-02-28T20:20:03.384Z,98391.91
2023-02-28T20:22:37.249Z,98377.94
2023-02-28T20:25:17.047Z,98387.59
2023-02-28T20:27:52.352Z,98386.81
2023-02-28T20:30:24.280Z,98383.88
2023-02-28T20:32:55.110Z,98387.47
2023-02-28T20:35:25.706Z,98390.59
2023-02-28T20:37:58.175Z,98395.41
2023-02-28T20:40:28.504Z,98392.47
2023-02-28T20:43:01.161Z,98390.09
2023-02-28T20:45:31.236Z,98383.81
2023-02-28T20:48:01.180Z,98384.53
2023-02-28T20:50:31.196Z,98382.06
2023-02-28T20:53:04.209Z,98379.78
2023-02-28T20:55:33.843Z,98380.38
2023-02-28T20:58:05.313Z,98379.69
2023-02-28T21:00:34.552Z,98380.38
2023-02-28T21:03:08.415Z,98373.00
2023-02-28T21:05:37.596Z,98370.72
2023-02-28T21:08:17.576Z,98372.94
2023-02-28T21:10:52.365Z,98372.19
2023-02-28T21:13:29.081Z,98372.47
2023-02-28T21:16:02.731Z,98383.31
2023-02-28T21:18:31.531Z,98375.00
2023-02-28T21:21:05.309Z,98379.16
2023-02-28T21:23:39.240Z,98376.19
2023-02-28T21:26:11.286Z,98367.63
2023-02-28T21:28:44.087Z,98365.47
2023-02-28T21:31:14.406Z,98358.56
2023-02-28T21:33:43.620Z,98363.28
2023-02-28T21:36:14.968Z,98364.13
2023-02-28T21:38:45.104Z,98361.84
2023-02-28T21:41:15.713Z,98364.25
2023-02-28T21:43:46.169Z,98364.13
2023-02-28T21:46:16.129Z,98359.66
2023-02-28T21:48:44.821Z,98348.84
2023-02-28T21:51:15.017Z,98350.78
2023-02-28T21:53:44.392Z,98350.97
2023-02-28T21:56:14.845Z,98356.75
2023-02-28T21:58:45.637Z,98360.41
2023-02-28T22:01:15.594Z,98362.94
2023-02-28T22:03:44.779Z,98370.91
2023-02-28T22:06:15.497Z,98373.38
2023-02-28T22:08:45.311Z,98367.63
2023-02-28T22:11:14.562Z,98361.16
2023-02-28T22:13:43.535Z,98365.97
2023-02-28T22:16:16.094Z,98370.19
2023-02-28T22:18:44.847Z,98365.44
2023-02-28T22:21:14.267Z,98365.44
2023-02-28T22:23:43.480Z,98363.31
2023-02-28T22:26:14.103Z,98366.78
2023-02-28T22:28:42.723Z,98354.69
2023-02-28T22:31:17.590Z,98359.44
2023-02-28T22:33:46.564Z,98352.50
2023-02-28T22:36:15.942Z,98357.13
2023-02-28T22:38:45.283Z,98348.97
2023-02-28T22:41:13.606Z,98341.72
2023-02-28T22:43:42.311Z,98343.88
2023-02-28T22:46:12.588Z,98340.88
2023-02-28T22:48:42.257Z,98343.88
2023-02-28T22:51:14.769Z,98328.50
2023-02-28T22:53:44.323Z,98328.22
2023-02-28T22:56:13.578Z,98335.75
2023-02-28T22:58:42.706Z,98330.75
2023-02-28T23:01:13.160Z,98341.09
2023-02-28T23:03:44.275Z,98338.75
2023-02-28T23:06:14.879Z,98342.75
2023-02-28T23:08:43.410Z,98345.84
2023-02-28T23:11:12.707Z,98348.44
2023-02-28T23:13:40.925Z,98341.53
2023-02-28T23:16:10.226Z,98346.34
2023-02-28T23:18:38.487Z,98360.06
2023-02-28T23:21:08.467Z,98351.19
2023-02-28T23:23:36.717Z,98347.59
2023-02-28T23:26:08.399Z,98343.63
2023-02-28T23:28:36.747Z,98345.50
2023-02-28T23:31:06.293Z,98346.75
2023-02-28T23:33:34.921Z,98351.25
2023-02-28T23:36:11.309Z,98358.03
2023-02-28T23:38:40.506Z,98363.06
2023-02-28T23:41:09.568Z,98365.84
2023-02-28T23:43:38.017Z,98362.88
2023-02-28T23:46:06.408Z,98356.53
2023-02-28T23:48:35.029Z,98360.03
2023-02-28T23:51:08.398Z,98357.06
2023-02-28T23:53:38.692Z,98345.06
2023-02-28T23:56:07.862Z,98347.28
2023-02-28T23:58:36.597Z,98352.34
